Time;durP1;ratioP1;P1;durP2;ratioP2;P2;SDS_P1;SDS_P2;PMS_P1;PMS_P2;Temp;Humidity;BMP_temperature;BMP_pressure;BME280_temperature;BME280_humidity;BME280_pressure;Samples;Min_cycle;Max_cycle;Signal;HPM_P1;HPM_P2
2022/05/16 00:00:10;;;;;;;2.80;2.30;;;19.50;99.20;;;;;;5065782;28;20443;-74
2022/05/16 00:02:36;;;;;;;2.97;2.03;;;19.50;98.90;;;;;;5046876;28;20904;-74
2022/05/16 00:05:02;;;;;;;2.97;2.20;;;19.50;99.00;;;;;;5065341;28;20447;-73
2022/05/16 00:07:28;;;;;;;3.37;2.20;;;19.40;99.00;;;;;;5064920;28;20184;-75
2022/05/16 00:09:53;;;;;;;2.10;1.90;;;19.30;98.70;;;;;;5065219;28;20407;-72
2022/05/16 00:12:19;;;;;;;2.33;2.07;;;19.30;98.70;;;;;;5065978;28;20209;-74
2022/05/16 00:14:45;;;;;;;2.73;1.80;;;19.30;99.00;;;;;;5065824;28;20540;-73
2022/05/16 00:17:12;;;;;;;4.20;2.30;;;19.20;99.60;;;;;;5067836;28;20257;-74
2022/05/16 00:19:39;;;;;;;2.47;2.10;;;19.10;99.50;;;;;;5053063;28;20423;-74
2022/05/16 00:22:05;;;;;;;2.40;2.07;;;19.10;99.90;;;;;;5052775;28;20456;-73
2022/05/16 00:24:31;;;;;;;2.63;2.10;;;19.00;99.90;;;;;;5071433;28;20412;-74
2022/05/16 00:26:58;;;;;;;2.93;2.40;;;18.80;99.50;;;;;;5070492;28;20419;-74
2022/05/16 00:29:25;;;;;;;2.50;2.17;;;18.90;99.60;;;;;;5052261;28;20181;-72
2022/05/16 00:31:51;;;;;;;3.57;2.23;;;19.00;99.90;;;;;;5065241;28;20451;-75
2022/05/16 00:34:17;;;;;;;4.80;2.50;;;19.00;99.70;;;;;;5064879;28;20416;-73
2022/05/16 00:36:46;;;;;;;3.03;2.60;;;19.00;99.60;;;;;;5046687;28;20420;-73
2022/05/16 00:39:13;;;;;;;2.80;2.17;;;19.10;99.90;;;;;;5065039;28;20181;-74
2022/05/16 00:41:39;;;;;;;2.73;2.20;;;19.00;99.90;;;;;;5064798;28;20493;-74
2022/05/16 00:44:05;;;;;;;3.93;2.63;;;18.90;99.90;;;;;;5064871;28;21072;-73
2022/05/16 00:46:32;;;;;;;3.63;2.20;;;18.80;99.90;;;;;;5046758;28;20408;-74
2022/05/16 00:49:00;;;;;;;2.77;2.03;;;19.00;99.90;;;;;;5064624;28;20196;-74
2022/05/16 00:51:31;;;;;;;2.57;2.37;;;18.80;99.90;;;;;;5064616;28;20529;-73
2022/05/16 00:54:06;;;;;;;6.17;2.73;;;18.70;99.90;;;;;;5064468;28;20523;-73
2022/05/16 00:56:32;;;;;;;3.03;2.53;;;18.80;99.90;;;;;;5064703;28;20502;-74
2022/05/16 00:58:58;;;;;;;2.50;2.07;;;18.80;99.90;;;;;;5064670;28;20485;-74
2022/05/16 01:06:56;;;;;;;2.60;2.40;;;18.80;99.90;;;;;;5064946;28;20404;-73
2022/05/16 01:09:22;;;;;;;2.70;2.13;;;18.70;99.90;;;;;;5046467;28;20423;-74
2022/05/16 01:11:48;;;;;;;4.53;1.93;;;18.70;99.90;;;;;;5064244;28;20436;-73
2022/05/16 01:14:52;;;;;;;3.40;2.83;;;18.60;99.90;;;;;;5064771;28;20181;-74
2022/05/16 01:17:18;;;;;;;2.63;2.33;;;18.70;99.90;;;;;;5064123;28;20412;-74
2022/05/16 01:19:44;;;;;;;2.90;2.33;;;18.70;99.90;;;;;;5063872;28;20416;-73
2022/05/16 01:22:40;;;;;;;5.77;2.77;;;18.60;99.90;;;;;;5063621;28;20513;-74
2022/05/16 01:25:21;;;;;;;3.17;2.70;;;18.50;99.90;;;;;;5062981;28;20178;-73
2022/05/16 01:27:55;;;;;;;4.93;2.77;;;18.10;99.90;;;;;;5046042;28;20420;-73
2022/05/16 01:30:29;;;;;;;2.27;2.07;;;18.10;99.90;;;;;;5063948;28;20447;-72
2022/05/16 01:32:55;;;;;;;2.90;1.83;;;18.10;99.90;;;;;;5064364;28;20443;-74
2022/05/16 01:35:25;;;;;;;5.60;2.10;;;18.30;99.90;;;;;;5063814;28;20442;-72
2022/05/16 01:40:35;;;;;;;2.17;1.90;;;18.20;99.90;;;;;;5064664;28;20394;-73
2022/05/16 01:43:01;;;;;;;2.57;2.37;;;18.10;99.90;;;;;;5063697;28;20536;-72
2022/05/16 01:45:27;;;;;;;4.33;2.00;;;18.10;99.90;;;;;;5063781;28;20416;-74
2022/05/16 01:47:53;;;;;;;2.53;2.10;;;18.10;99.90;;;;;;5062645;28;20828;-73
2022/05/16 01:50:18;;;;;;;6.43;2.60;;;17.90;99.90;;;;;;5063706;28;20178;-73
2022/05/16 01:52:44;;;;;;;2.50;2.30;;;18.00;99.90;;;;;;5063422;28;20709;-74
2022/05/16 01:55:11;;;;;;;3.57;2.10;;;18.10;99.90;;;;;;5063978;28;20736;-74
2022/05/16 01:57:37;;;;;;;4.60;2.87;;;18.20;99.90;;;;;;5063319;28;20174;-74
2022/05/16 02:00:04;;;;;;;2.73;2.20;;;18.10;99.90;;;;;;5063989;28;20404;-72
2022/05/16 02:02:30;;;;;;;2.03;1.83;;;18.10;99.90;;;;;;5063197;28;20537;-73
2022/05/16 02:04:55;;;;;;;3.13;2.53;;;18.20;99.90;;;;;;5063507;28;20416;-73
2022/05/16 02:07:21;;;;;;;2.83;2.40;;;18.20;99.90;;;;;;5062385;28;21145;-73
2022/05/16 02:09:46;;;;;;;2.83;2.53;;;18.10;99.90;;;;;;5063608;28;20181;-72
2022/05/16 02:12:12;;;;;;;2.87;2.57;;;18.10;99.90;;;;;;5063259;28;20206;-72
2022/05/16 02:14:38;;;;;;;8.00;3.33;;;18.20;99.60;;;;;;5063625;28;20174;-74
2022/05/16 02:17:04;;;;;;;4.87;2.50;;;18.40;99.20;;;;;;5063569;28;20412;-72
2022/05/16 02:19:30;;;;;;;4.73;2.60;;;18.60;99.10;;;;;;5064077;28;20682;-75
2022/05/16 02:24:39;;;;;;;2.90;2.50;;;18.70;98.80;;;;;;5063721;28;20176;-72
2022/05/16 02:27:11;;;;;;;4.10;2.87;;;18.60;98.80;;;;;;5063682;28;20904;-72
2022/05/16 02:29:37;;;;;;;2.53;2.30;;;18.80;98.40;;;;;;5063426;28;20182;-74
2022/05/16 02:32:05;;;;;;;4.13;2.20;;;19.00;98.70;;;;;;5063558;28;20443;-74
2022/05/16 02:34:31;;;;;;;3.67;2.60;;;19.20;98.90;;;;;;5066167;28;20461;-74
2022/05/16 02:36:57;;;;;;;5.03;2.83;;;19.20;98.90;;;;;;5067316;28;20515;-73
2022/05/16 02:39:23;;;;;;;2.47;2.27;;;19.20;98.90;;;;;;5049104;28;21007;-74
2022/05/16 02:41:48;;;;;;;2.53;2.13;;;19.10;99.30;;;;;;5066621;28;20284;-73
2022/05/16 02:44:14;;;;;;;4.20;2.53;;;19.00;99.70;;;;;;5067387;28;20499;-73
2022/05/16 02:46:41;;;;;;;3.60;2.37;;;18.80;99.50;;;;;;5067662;28;20261;-73
2022/05/16 02:49:07;;;;;;;2.73;2.40;;;18.90;99.90;;;;;;5049426;28;20614;-72
2022/05/16 02:51:33;;;;;;;3.40;2.50;;;18.90;99.90;;;;;;5068714;28;20459;-73
2022/05/16 02:53:59;;;;;;;2.27;1.90;;;18.90;99.90;;;;;;5050132;28;20856;-73
2022/05/16 02:56:25;;;;;;;2.60;2.30;;;18.80;99.90;;;;;;5050051;28;20412;-73
2022/05/16 02:58:50;;;;;;;2.83;2.63;;;18.70;99.90;;;;;;5067618;28;20555;-73
2022/05/16 03:01:16;;;;;;;3.50;3.20;;;18.70;99.90;;;;;;5067614;28;20296;-73
2022/05/16 03:03:42;;;;;;;2.27;2.07;;;18.70;99.90;;;;;;5067332;28;20174;-73
2022/05/16 03:06:09;;;;;;;2.60;2.30;;;18.80;99.90;;;;;;5068010;28;20186;-73
2022/05/16 03:08:37;;;;;;;4.07;2.30;;;18.70;99.90;;;;;;5049631;28;20427;-73
2022/05/16 03:11:03;;;;;;;2.73;2.40;;;18.70;99.80;;;;;;5067273;28;20511;-73
2022/05/16 03:13:29;;;;;;;4.30;2.90;;;18.70;99.90;;;;;;5047895;28;20439;-72
2022/05/16 03:15:55;;;;;;;3.40;2.50;;;18.60;99.60;;;;;;5049665;28;20451;-74
2022/05/16 03:18:23;;;;;;;3.23;2.90;;;18.60;99.90;;;;;;5066917;28;20844;-73
2022/05/16 03:20:51;;;;;;;3.27;2.97;;;18.60;99.70;;;;;;5067146;28;20420;-73
2022/05/16 03:23:17;;;;;;;4.60;2.77;;;18.90;99.90;;;;;;5067051;28;20547;-74
2022/05/16 03:25:43;;;;;;;4.23;2.50;;;18.90;99.90;;;;;;5066936;28;20617;-73
2022/05/16 03:28:08;;;;;;;3.27;2.37;;;18.90;99.90;;;;;;5066649;28;20412;-73
2022/05/16 03:30:35;;;;;;;3.10;2.67;;;18.90;99.90;;;;;;5066169;28;20251;-73
2022/05/16 03:33:01;;;;;;;3.50;2.53;;;18.90;99.90;;;;;;5066504;28;20197;-72
2022/05/16 03:35:27;;;;;;;3.80;2.73;;;19.00;99.90;;;;;;5066624;28;20412;-74
2022/05/16 03:37:52;;;;;;;2.60;2.40;;;19.00;99.90;;;;;;5066081;28;20912;-71
2022/05/16 03:43:02;;;;;;;2.60;2.40;;;19.00;99.90;;;;;;5065682;28;20217;-73
2022/05/16 03:45:27;;;;;;;3.13;2.83;;;19.10;99.90;;;;;;5064932;28;20416;-74
2022/05/16 03:47:53;;;;;;;2.67;2.23;;;19.10;99.90;;;;;;5065661;28;20184;-74
2022/05/16 03:50:19;;;;;;;2.70;2.50;;;19.10;99.90;;;;;;5066110;28;20596;-74
2022/05/16 03:52:44;;;;;;;2.87;2.67;;;19.20;99.90;;;;;;5065773;28;20308;-74
2022/05/16 03:55:13;;;;;;;2.60;2.40;;;19.10;99.90;;;;;;5065617;28;20262;-73
2022/05/16 03:57:41;;;;;;;4.13;2.90;;;19.20;99.90;;;;;;5065629;28;20522;-73
2022/05/16 04:00:09;;;;;;;3.00;2.80;;;19.20;99.90;;;;;;5047342;28;20416;-75
2022/05/16 04:02:37;;;;;;;3.30;2.40;;;19.20;99.90;;;;;;5065441;28;20460;-73
2022/05/16 04:05:03;;;;;;;3.27;2.93;;;19.20;99.90;;;;;;5065663;28;20408;-72
2022/05/16 04:07:29;;;;;;;3.30;3.00;;;19.30;99.90;;;;;;5065789;28;20491;-74
2022/05/16 04:09:55;;;;;;;5.80;2.90;;;19.20;99.90;;;;;;5065423;28;20534;-71
2022/05/16 04:12:20;;;;;;;3.30;3.00;;;19.20;99.90;;;;;;5065974;28;20233;-75
2022/05/16 04:14:46;;;;;;;3.97;3.00;;;19.30;99.90;;;;;;5064736;28;20174;-72
2022/05/16 04:17:11;;;;;;;3.47;2.60;;;19.30;99.90;;;;;;5065356;28;20174;-72
2022/05/16 04:19:37;;;;;;;6.03;3.40;;;19.40;99.90;;;;;;5065211;28;20209;-73
2022/05/16 04:22:03;;;;;;;2.73;2.53;;;19.40;99.90;;;;;;5064117;28;20216;-74
2022/05/16 04:24:28;;;;;;;4.70;3.00;;;19.40;99.90;;;;;;5064862;28;20178;-73
2022/05/16 04:26:54;;;;;;;3.70;2.60;;;19.50;99.90;;;;;;5064835;28;20181;-73
2022/05/16 04:29:19;;;;;;;2.87;2.67;;;19.30;99.90;;;;;;5065176;28;20174;-74
2022/05/16 04:31:45;;;;;;;3.83;3.30;;;19.20;99.90;;;;;;5065461;28;20682;-73
2022/05/16 04:34:11;;;;;;;3.60;3.30;;;19.10;99.90;;;;;;5063841;28;20719;-73
2022/05/16 04:36:37;;;;;;;3.27;2.53;;;19.20;99.90;;;;;;5064872;28;20323;-72
2022/05/16 04:39:03;;;;;;;3.47;3.10;;;19.30;99.90;;;;;;5064183;28;20181;-73
2022/05/16 04:44:13;;;;;;;3.73;3.10;;;19.40;99.90;;;;;;5064246;28;20450;-73
2022/05/16 04:46:38;;;;;;;4.30;3.60;;;19.30;99.90;;;;;;5065144;28;20412;-72
2022/05/16 04:49:04;;;;;;;5.13;3.53;;;19.40;99.90;;;;;;5065352;28;20244;-73
2022/05/16 04:51:30;;;;;;;4.20;3.67;;;19.20;99.90;;;;;;5082343;22;20239;-74
2022/05/16 04:53:56;;;;;;;3.43;3.10;;;19.20;99.90;;;;;;5063450;28;20200;-73
2022/05/16 04:56:21;;;;;;;3.80;3.40;;;19.20;99.90;;;;;;5064449;28;20409;-73
2022/05/16 04:58:47;;;;;;;4.53;3.50;;;19.10;99.90;;;;;;5062823;28;20276;-73
2022/05/16 05:01:12;;;;;;;4.67;3.73;;;19.00;99.90;;;;;;5064401;28;20174;-73
2022/05/16 05:03:38;;;;;;;4.03;3.10;;;19.20;99.90;;;;;;5064311;28;20571;-73
2022/05/16 05:06:04;;;;;;;4.53;3.57;;;19.30;99.90;;;;;;5063837;28;20867;-74
2022/05/16 05:08:29;;;;;;;5.17;3.50;;;19.40;99.90;;;;;;5064503;28;21139;-74
2022/05/16 05:16:43;;;;;;;4.90;4.40;;;19.60;99.90;;;;;;5002219;28;20771;-74
2022/05/16 05:19:09;;;;;;;4.83;3.93;;;19.40;99.90;;;;;;5038627;28;20428;-74
2022/05/16 05:21:34;;;;;;;3.60;3.30;;;19.60;99.90;;;;;;5064097;28;20209;-75
2022/05/16 05:24:00;;;;;;;10.73;4.27;;;19.80;99.90;;;;;;5064446;28;20174;-75
2022/05/16 05:26:26;;;;;;;4.37;3.97;;;19.70;99.90;;;;;;5064842;28;20193;-74
2022/05/16 05:28:51;;;;;;;4.73;4.00;;;19.90;99.90;;;;;;5064486;28;20534;-75
2022/05/16 05:31:19;;;;;;;4.90;4.40;;;19.90;99.90;;;;;;5064064;28;20178;-73
2022/05/16 05:33:45;;;;;;;5.50;3.40;;;20.10;99.90;;;;;;5064753;28;20200;-74
2022/05/16 05:36:11;;;;;;;5.03;3.50;;;20.10;99.90;;;;;;5063809;28;20429;-73
2022/05/16 05:38:37;;;;;;;4.70;3.83;;;20.00;99.90;;;;;;5064455;28;20227;-74
2022/05/16 05:41:08;;;;;;;4.53;3.83;;;20.20;99.90;;;;;;5046181;28;20412;-74
2022/05/16 05:43:33;;;;;;;4.00;3.70;;;20.40;99.90;;;;;;5046311;28;20448;-74
2022/05/16 05:46:03;;;;;;;3.93;3.43;;;20.50;99.90;;;;;;5063462;28;20502;-73
2022/05/16 05:48:28;;;;;;;4.83;3.30;;;20.60;99.90;;;;;;5064113;28;20170;-73
2022/05/16 05:50:54;;;;;;;4.63;3.43;;;20.40;99.90;;;;;;5063531;28;20507;-74
2022/05/16 05:53:20;;;;;;;7.57;3.80;;;20.30;99.90;;;;;;5064159;28;20449;-73
2022/05/16 05:55:47;;;;;;;4.20;3.13;;;20.20;99.90;;;;;;5064294;28;20232;-74
2022/05/16 05:58:14;;;;;;;4.53;3.30;;;20.40;99.90;;;;;;5064014;28;20205;-74
2022/05/16 06:00:40;;;;;;;6.93;3.40;;;20.60;99.90;;;;;;5064157;28;20512;-75
2022/05/16 06:03:06;;;;;;;4.17;3.77;;;20.70;99.90;;;;;;5063510;28;20459;-75
2022/05/16 06:05:32;;;;;;;5.17;4.20;;;20.90;99.90;;;;;;5063375;28;20969;-74
2022/05/16 06:07:58;;;;;;;9.77;4.07;;;20.90;99.90;;;;;;5045902;28;20185;-74
2022/05/16 06:10:24;;;;;;;7.23;5.00;;;20.90;99.90;;;;;;5067811;28;20469;-74
2022/05/16 06:12:49;;;;;;;6.13;3.90;;;21.00;99.90;;;;;;5067699;28;20200;-74
2022/05/16 06:15:16;;;;;;;7.43;4.27;;;21.10;99.90;;;;;;5067834;28;20261;-75
2022/05/16 06:17:43;;;;;;;5.50;3.77;;;21.20;99.90;;;;;;5067597;28;20173;-74
2022/05/16 06:20:11;;;;;;;6.30;3.90;;;21.10;99.90;;;;;;5067762;28;20414;-75
2022/05/16 06:22:38;;;;;;;7.77;3.60;;;21.20;99.90;;;;;;5067294;28;21039;-75
2022/05/16 06:27:55;;;;;;;4.90;3.50;;;21.30;99.90;;;;;;5067758;28;20764;-74
2022/05/16 06:30:22;;;;;;;4.10;3.70;;;21.30;99.90;;;;;;5067591;28;20411;-75
2022/05/16 06:32:48;;;;;;;4.10;3.23;;;21.30;99.90;;;;;;5067289;28;20201;-75
2022/05/16 06:35:15;;;;;;;4.23;3.83;;;21.40;99.90;;;;;;5067100;28;20905;-74
2022/05/16 06:37:40;;;;;;;3.90;3.43;;;21.40;99.90;;;;;;5067687;28;20498;-74
2022/05/16 06:40:06;;;;;;;5.03;4.10;;;21.40;99.90;;;;;;5067845;28;20495;-74
2022/05/16 06:42:32;;;;;;;6.90;4.17;;;21.50;99.90;;;;;;5067738;28;20208;-75
2022/05/16 06:44:58;;;;;;;4.90;3.30;;;21.70;99.90;;;;;;5049047;28;20184;-74
2022/05/16 06:47:24;;;;;;;4.80;3.80;;;21.70;99.90;;;;;;5066966;28;20741;-74
2022/05/16 06:49:51;;;;;;;6.07;3.90;;;21.70;99.90;;;;;;5067425;28;20178;-74
2022/05/16 06:52:17;;;;;;;10.17;3.57;;;21.70;99.90;;;;;;5066740;28;20505;-73
2022/05/16 06:54:43;;;;;;;3.67;3.13;;;21.50;99.90;;;;;;5067420;28;20442;-75
2022/05/16 06:57:09;;;;;;;5.03;4.37;;;21.70;99.90;;;;;;5067014;28;20412;-75
2022/05/16 06:59:35;;;;;;;5.60;4.40;;;21.80;99.90;;;;;;5067540;28;20412;-74
2022/05/16 07:02:02;;;;;;;5.10;3.73;;;22.10;99.90;;;;;;5048962;28;20216;-75
2022/05/16 07:04:27;;;;;;;3.50;3.20;;;22.00;99.90;;;;;;5067016;28;20420;-75
2022/05/16 07:06:53;;;;;;;4.47;3.30;;;21.90;99.90;;;;;;5066840;28;20415;-74
2022/05/16 07:09:19;;;;;;;4.30;3.20;;;22.00;99.90;;;;;;5066715;28;20174;-74
2022/05/16 07:11:45;;;;;;;4.27;3.17;;;22.10;99.90;;;;;;5066781;28;20194;-75
2022/05/16 07:14:10;;;;;;;4.93;3.70;;;22.30;99.90;;;;;;5066778;28;20174;-75
2022/05/16 07:16:36;;;;;;;3.60;3.40;;;22.40;99.90;;;;;;5066720;28;20784;-74
2022/05/16 07:19:02;;;;;;;3.80;3.37;;;22.40;99.90;;;;;;5066238;28;20174;-74
2022/05/16 07:21:28;;;;;;;5.73;3.23;;;22.50;99.90;;;;;;5047232;28;20296;-75
2022/05/16 07:23:53;;;;;;;3.57;3.27;;;22.80;99.90;;;;;;5066930;28;20408;-74
2022/05/16 07:29:03;;;;;;;3.90;3.60;;;23.50;99.90;;;;;;5066658;28;20669;-74
2022/05/16 07:31:29;;;;;;;4.57;2.90;;;23.80;99.90;;;;;;5066128;28;20448;-72
2022/05/16 07:33:55;;;;;;;5.43;3.23;;;23.90;99.90;;;;;;5066772;28;20489;-74
2022/05/16 07:36:20;;;;;;;4.37;3.53;;;24.10;99.90;;;;;;5065830;28;20940;-74
2022/05/16 07:38:46;;;;;;;4.10;3.23;;;24.20;99.90;;;;;;5066329;28;20178;-74
2022/05/16 07:41:12;;;;;;;6.50;3.40;;;24.40;99.90;;;;;;5066302;28;20185;-74
2022/05/16 07:43:38;;;;;;;4.90;4.40;;;24.20;99.90;;;;;;5066549;28;20573;-74
2022/05/16 07:46:04;;;;;;;5.40;3.90;;;24.00;99.90;;;;;;5047985;28;20933;-74
2022/05/16 07:48:30;;;;;;;5.80;4.10;;;24.10;99.90;;;;;;5066035;28;20174;-74
2022/05/16 07:50:56;;;;;;;4.80;4.40;;;24.10;99.90;;;;;;5047793;28;20430;-74
2022/05/16 07:53:22;;;;;;;4.60;4.20;;;24.10;99.90;;;;;;5065828;28;20221;-74
2022/05/16 07:55:53;;;;;;;7.80;4.73;;;24.10;99.90;;;;;;5066099;28;21173;-74
2022/05/16 07:58:22;;;;;;;5.33;4.30;;;24.50;99.90;;;;;;5066015;28;20951;-75
2022/05/16 08:00:50;;;;;;;8.77;4.90;;;24.70;99.90;;;;;;5047757;28;20774;-75
2022/05/16 08:03:18;;;;;;;6.53;4.53;;;24.40;99.90;;;;;;5065721;28;20949;-74
2022/05/16 08:05:44;;;;;;;5.90;5.33;;;24.60;99.90;;;;;;5065657;28;20774;-74
2022/05/16 08:10:57;;;;;;;7.03;4.80;;;24.60;99.90;;;;;;5065827;28;20189;-74
2022/05/16 08:13:23;;;;;;;6.70;5.50;;;24.70;99.90;;;;;;5065425;28;20440;-74
2022/05/16 08:15:49;;;;;;;5.13;4.63;;;24.50;99.90;;;;;;5065805;28;20499;-74
2022/05/16 08:18:14;;;;;;;7.30;5.47;;;24.40;99.90;;;;;;5065229;28;20438;-74
2022/05/16 08:20:43;;;;;;;6.97;6.00;;;24.20;99.90;;;;;;5065657;28;20197;-74
2022/05/16 08:23:13;;;;;;;6.17;5.53;;;24.00;99.90;;;;;;5065590;28;20209;-74
2022/05/16 08:25:39;;;;;;;7.50;5.70;;;24.00;99.90;;;;;;5065827;28;20416;-74
2022/05/16 08:28:07;;;;;;;6.37;4.83;;;23.90;99.90;;;;;;5064986;28;20423;-73
2022/05/16 08:30:33;;;;;;;7.57;6.23;;;23.90;99.90;;;;;;5065253;28;20458;-75
2022/05/16 08:33:02;;;;;;;6.87;5.80;;;24.00;99.90;;;;;;5065098;28;20518;-76
2022/05/16 08:35:28;;;;;;;6.30;5.70;;;23.90;99.90;;;;;;5065253;28;20420;-75
2022/05/16 08:41:05;;;;;;;6.17;5.10;;;23.70;99.90;;;;;;5065657;28;20406;-73
2022/05/16 08:43:51;;;;;;;8.90;5.87;;;23.80;99.90;;;;;;5059885;28;20499;-73
2022/05/16 08:46:47;;;;;;;7.47;6.00;;;24.10;99.90;;;;;;5065149;28;20623;-74
2022/05/16 08:49:40;;;;;;;6.63;5.47;;;24.20;99.90;;;;;;5064899;28;20451;-74
2022/05/16 08:52:26;;;;;;;7.50;5.80;;;24.20;99.90;;;;;;5064698;28;20451;-73
2022/05/16 08:55:27;;;;;;;5.40;4.73;;;24.40;99.90;;;;;;5064936;28;20940;-74
2022/05/16 08:58:17;;;;;;;7.23;5.60;;;24.60;99.90;;;;;;5038787;28;20465;-74
2022/05/16 09:00:51;;;;;;;9.53;5.17;;;25.00;99.90;;;;;;5064308;28;20428;-73
2022/05/16 09:03:47;;;;;;;4.90;4.50;;;25.50;99.90;;;;;;5064146;28;20459;-74
2022/05/16 09:06:20;;;;;;;7.07;4.90;;;25.90;99.90;;;;;;5064718;28;20942;-73
2022/05/16 09:08:51;;;;;;;9.30;5.60;;;26.00;99.90;;;;;;5064623;28;21015;-74
2022/05/16 09:11:47;;;;;;;6.97;4.77;;;26.30;99.90;;;;;;5064850;28;20408;-73
2022/05/16 09:14:40;;;;;;;7.63;5.73;;;26.30;99.90;;;;;;5063072;28;20482;-74
2022/05/16 09:17:14;;;;;;;5.33;4.83;;;26.10;99.90;;;;;;5064622;28;21561;-74
2022/05/16 09:19:55;;;;;;;5.27;4.60;;;26.10;99.90;;;;;;5064452;28;20438;-74
2022/05/16 09:22:58;;;;;;;5.83;4.60;;;26.50;99.90;;;;;;5064208;28;20857;-74
2022/05/16 09:25:33;;;;;;;6.30;4.80;;;27.00;99.90;;;;;;5064164;28;20503;-73
2022/05/16 09:30:47;;;;;;;6.23;4.83;;;27.20;98.30;;;;;;5064535;28;20806;-74
2022/05/16 09:33:24;;;;;;;6.03;4.80;;;27.40;96.90;;;;;;5064274;28;20539;-74
2022/05/16 09:35:59;;;;;;;8.50;4.90;;;27.50;96.00;;;;;;5064510;28;20897;-74
2022/05/16 09:38:25;;;;;;;5.43;4.77;;;27.60;96.00;;;;;;5064146;28;20450;-74
2022/05/16 09:41:01;;;;;;;8.30;5.43;;;27.80;94.60;;;;;;5064216;28;20416;-74
2022/05/16 09:44:13;;;;;;;6.70;5.07;;;27.40;94.40;;;;;;5045148;28;20347;-74
2022/05/16 09:46:42;;;;;;;5.70;5.07;;;27.30;96.10;;;;;;5027049;28;20492;-74
2022/05/16 09:49:19;;;;;;;5.10;4.70;;;27.10;94.70;;;;;;5064447;28;20479;-74
2022/05/16 09:51:56;;;;;;;5.90;4.70;;;26.50;95.50;;;;;;5063717;28;20458;-74
2022/05/16 09:54:28;;;;;;;7.80;5.57;;;26.50;94.80;;;;;;5064037;28;20412;-74
2022/05/16 09:57:06;;;;;;;8.90;5.30;;;26.30;95.00;;;;;;5046020;28;20435;-74
2022/05/16 09:59:50;;;;;;;7.90;5.20;;;26.30;95.30;;;;;;5064180;28;20412;-74
2022/05/16 10:02:30;;;;;;;6.10;5.00;;;26.30;95.00;;;;;;5063525;28;21023;-74
2022/05/16 10:04:57;;;;;;;7.33;5.30;;;26.20;95.50;;;;;;5063851;28;20407;-73
2022/05/16 10:07:41;;;;;;;7.80;4.90;;;26.60;96.70;;;;;;5063832;28;20416;-73
2022/05/16 10:10:13;;;;;;;7.30;4.60;;;27.00;94.20;;;;;;5063981;28;20396;-74
2022/05/16 10:12:39;;;;;;;8.80;4.47;;;27.30;94.40;;;;;;5045904;28;20862;-74
2022/05/16 10:15:06;;;;;;;7.47;5.07;;;27.50;93.50;;;;;;5063563;28;20440;-73
2022/05/16 10:17:36;;;;;;;6.90;4.90;;;27.60;94.50;;;;;;5063630;28;20474;-74
2022/05/16 10:20:07;;;;;;;7.63;5.20;;;27.70;92.90;;;;;;5063996;28;20416;-74
2022/05/16 10:22:34;;;;;;;5.80;4.23;;;27.70;93.00;;;;;;5063359;28;20468;-74
2022/05/16 10:25:03;;;;;;;5.43;4.60;;;27.20;92.90;;;;;;5046202;28;20416;-74
2022/05/16 10:27:36;;;;;;;5.40;4.83;;;27.50;93.60;;;;;;5063408;28;20405;-74
2022/05/16 10:30:20;;;;;;;6.47;5.27;;;27.50;92.40;;;;;;5063691;28;20400;-74
2022/05/16 10:35:43;;;;;;;6.27;5.03;;;27.20;92.70;;;;;;5064066;28;20439;-74
2022/05/16 10:38:22;;;;;;;7.70;4.77;;;26.90;93.20;;;;;;5063704;28;20420;-75
2022/05/16 10:40:54;;;;;;;4.40;3.93;;;26.50;93.90;;;;;;5063411;28;20420;-75
2022/05/16 10:43:32;;;;;;;5.87;4.57;;;26.30;94.40;;;;;;5063511;28;20463;-74
2022/05/16 10:46:06;;;;;;;5.97;4.70;;;26.10;94.30;;;;;;5045576;28;20790;-75
2022/05/16 10:48:39;;;;;;;4.97;4.47;;;25.90;94.60;;;;;;5063211;28;20491;-75
2022/05/16 10:51:13;;;;;;;6.00;5.50;;;25.90;94.90;;;;;;5063710;28;20504;-75
2022/05/16 10:53:49;;;;;;;7.23;4.60;;;25.90;95.20;;;;;;5085302;22;20911;-75
2022/05/16 10:56:18;;;;;;;5.60;4.47;;;25.90;95.10;;;;;;5083359;28;20432;-72
2022/05/16 10:59:10;;;;;;;4.30;3.60;;;25.60;94.50;;;;;;5066919;28;20503;-75
2022/05/16 11:01:50;;;;;;;6.47;3.90;;;25.40;95.20;;;;;;5068285;28;20447;-71
2022/05/16 11:04:40;;;;;;;6.63;3.80;;;25.50;95.40;;;;;;5051401;28;20495;-73
2022/05/16 11:07:28;;;;;;;5.83;3.80;;;25.30;95.50;;;;;;5054928;28;20413;-73
2022/05/16 11:10:12;;;;;;;11.37;4.33;;;25.50;95.30;;;;;;5050583;28;20944;-72
2022/05/16 11:13:10;;;;;;;7.30;4.23;;;25.60;95.10;;;;;;5057588;28;20458;-71
2022/05/16 11:15:54;;;;;;;7.40;4.07;;;25.40;95.20;;;;;;5005898;28;20418;-71
2022/05/16 11:18:27;;;;;;;5.23;3.90;;;25.40;95.80;;;;;;5049092;28;20428;-74
2022/05/16 11:21:04;;;;;;;5.03;3.90;;;25.00;95.90;;;;;;5057696;28;20898;-74
2022/05/16 11:23:34;;;;;;;4.00;3.60;;;24.90;96.50;;;;;;5059094;28;20468;-74
2022/05/16 11:26:13;;;;;;;8.33;3.23;;;24.70;97.00;;;;;;5058242;28;20795;-74
2022/05/16 11:29:19;;;;;;;8.43;3.70;;;24.50;97.30;;;;;;5052503;28;20450;-73
2022/05/16 11:31:53;;;;;;;4.60;3.50;;;24.10;97.80;;;;;;5051774;28;20429;-74
2022/05/16 11:34:42;;;;;;;6.50;4.97;;;23.90;98.10;;;;;;5053257;28;20424;-72
2022/05/16 11:37:36;;;;;;;4.50;3.17;;;24.00;98.10;;;;;;5054483;28;20404;-73
2022/05/16 11:40:24;;;;;;;8.93;3.20;;;24.10;98.20;;;;;;5042274;28;20434;-73
2022/05/16 11:43:21;;;;;;;5.80;3.53;;;24.00;98.10;;;;;;5046711;28;21051;-74
2022/05/16 11:46:23;;;;;;;3.00;2.20;;;23.70;97.80;;;;;;5053268;28;20476;-76
2022/05/16 11:49:04;;;;;;;3.77;2.17;;;23.60;97.80;;;;;;5059372;28;20844;-74
2022/05/16 11:51:48;;;;;;;3.13;2.30;;;23.60;97.70;;;;;;5057469;28;20409;-72
2022/05/16 11:54:18;;;;;;;3.60;2.17;;;23.60;97.80;;;;;;5050362;28;20438;-74
2022/05/16 12:02:28;;;;;;;5.70;2.17;;;23.20;97.00;;;;;;5058146;28;20903;-74
2022/05/16 12:05:01;;;;;;;4.27;2.43;;;23.00;96.70;;;;;;5061764;28;20404;-74
2022/05/16 12:07:45;;;;;;;4.83;2.60;;;22.90;96.90;;;;;;5055269;28;20405;-72
2022/05/16 12:10:11;;;;;;;3.53;2.10;;;22.80;96.80;;;;;;5049510;28;20401;-74
2022/05/16 12:12:38;;;;;;;7.50;2.10;;;22.50;97.70;;;;;;5046716;28;20444;-75
2022/05/16 12:15:16;;;;;;;3.87;2.40;;;22.40;98.60;;;;;;5059449;28;20174;-75
2022/05/16 12:17:51;;;;;;;4.00;2.00;;;22.20;99.90;;;;;;5050886;28;20405;-75
2022/05/16 12:20:32;;;;;;;5.33;1.70;;;22.10;99.90;;;;;;5052343;28;20423;-73
2022/05/16 12:22:58;;;;;;;3.80;2.27;;;21.90;99.90;;;;;;5052028;28;20835;-74
2022/05/16 12:25:32;;;;;;;5.90;2.47;;;21.50;99.90;;;;;;5061243;28;20473;-76
2022/05/16 12:28:13;;;;;;;3.50;2.00;;;21.50;99.90;;;;;;5054925;28;20568;-74
2022/05/16 12:30:55;;;;;;;5.00;1.90;;;21.50;99.90;;;;;;5054249;28;20413;-74
2022/05/16 12:33:41;;;;;;;3.17;2.00;;;21.60;99.90;;;;;;5045370;28;20440;-73
2022/05/16 12:36:25;;;;;;;4.50;2.30;;;21.40;99.90;;;;;;5053111;28;20470;-74
2022/05/16 12:39:03;;;;;;;4.17;2.70;;;21.10;99.90;;;;;;5048623;28;20431;-73
2022/05/16 12:41:52;;;;;;;2.67;2.20;;;21.20;99.90;;;;;;5061894;28;20930;-75
2022/05/16 12:44:23;;;;;;;4.17;2.33;;;21.00;99.90;;;;;;5067435;28;20408;-75
2022/05/16 12:47:13;;;;;;;4.57;2.53;;;21.00;99.90;;;;;;5050807;28;20412;-74
2022/05/16 12:49:59;;;;;;;7.33;2.67;;;21.20;99.90;;;;;;5047218;28;20413;-72
2022/05/16 12:52:49;;;;;;;4.80;2.27;;;21.10;99.90;;;;;;5048171;28;20447;-74
2022/05/16 12:55:26;;;;;;;4.37;2.30;;;21.20;99.90;;;;;;5051023;28;20888;-74
2022/05/16 12:58:12;;;;;;;3.73;2.40;;;21.30;99.90;;;;;;5050611;28;20413;-74
2022/05/16 13:00:51;;;;;;;3.17;2.53;;;21.50;99.90;;;;;;5054855;28;20930;-74
2022/05/16 13:03:45;;;;;;;3.77;2.40;;;21.50;99.90;;;;;;5058388;28;20535;-73
2022/05/16 13:06:48;;;;;;;3.77;2.00;;;21.50;99.90;;;;;;5058455;28;20440;-75
2022/05/16 13:09:25;;;;;;;6.10;2.70;;;22.00;99.90;;;;;;5026944;28;20425;-74
2022/05/16 13:12:22;;;;;;;4.43;2.20;;;22.60;99.90;;;;;;5055839;28;20420;-75
2022/05/16 13:14:48;;;;;;;4.07;1.67;;;23.80;99.90;;;;;;5059467;28;20444;-76
2022/05/16 13:17:31;;;;;;;4.80;2.30;;;24.30;99.90;;;;;;5054080;28;20455;-77
2022/05/16 13:20:01;;;;;;;2.23;1.87;;;24.90;99.90;;;;;;5067228;28;20563;-74
2022/05/16 13:22:26;;;;;;;2.50;1.90;;;25.80;99.90;;;;;;5060008;28;20457;-76
2022/05/16 13:24:54;;;;;;;3.90;2.13;;;26.30;99.90;;;;;;5065018;28;21013;-76
2022/05/16 13:30:14;;;;;;;5.50;2.40;;;25.90;99.90;;;;;;5051500;28;21339;-77
2022/05/16 13:32:40;;;;;;;3.20;2.00;;;26.00;99.90;;;;;;5043253;28;20440;-75
2022/05/16 13:35:09;;;;;;;3.53;1.40;;;25.60;99.90;;;;;;5044524;28;20485;-76
2022/05/16 13:37:50;;;;;;;7.30;2.37;;;25.70;99.90;;;;;;5058343;28;20423;-76
2022/05/16 13:40:41;;;;;;;5.23;2.27;;;26.10;99.90;;;;;;5048942;28;20417;-74
2022/05/16 13:43:20;;;;;;;2.53;2.10;;;26.00;99.90;;;;;;5052173;28;20746;-75
2022/05/16 13:45:46;;;;;;;5.40;1.80;;;25.70;99.90;;;;;;5051202;28;20424;-75
2022/05/16 13:48:16;;;;;;;3.20;1.60;;;25.50;99.90;;;;;;5059697;28;20780;-76
2022/05/16 13:50:43;;;;;;;4.00;2.03;;;25.80;99.90;;;;;;5050926;28;20209;-76
2022/05/16 13:53:14;;;;;;;5.80;2.27;;;26.70;99.90;;;;;;5053866;28;20463;-76